sensor_id;sensor_type;location;lat;lon;timestamp;temperature;humidity
13229;DHT22;6680;53.220;10.402;2023-06-14T00:02:10;15.40;99.90
13229;DHT22;6680;53.220;10.402;2023-06-14T00:04:37;15.30;99.90
13229;DHT22;6680;53.220;10.402;2023-06-14T00:07:05;15.20;99.90
13229;DHT22;6680;53.220;10.402;2023-06-14T00:09:33;15.20;99.90
13229;DHT22;6680;53.220;10.402;2023-06-14T00:12:00;15.20;99.90
13229;DHT22;6680;53.220;10.402;2023-06-14T00:14:27;15.20;99.90
13229;DHT22;6680;53.220;10.402;2023-06-14T00:16:55;15.90;99.90
13229;DHT22;6680;53.220;10.402;2023-06-14T00:19:24;15.10;99.90
13229;DHT22;6680;53.220;10.402;2023-06-14T00:21:50;15.10;99.90
13229;DHT22;6680;53.220;10.402;2023-06-14T00:24:19;15.20;99.90
13229;DHT22;6680;53.220;10.402;2023-06-14T00:26:45;14.90;99.90
13229;DHT22;6680;53.220;10.402;2023-06-14T00:29:12;15.10;99.90
13229;DHT22;6680;53.220;10.402;2023-06-14T00:31:39;15.20;99.90
13229;DHT22;6680;53.220;10.402;2023-06-14T00:34:07;15.10;99.90
13229;DHT22;6680;53.220;10.402;2023-06-14T00:36:34;14.90;99.90
13229;DHT22;6680;53.220;10.402;2023-06-14T00:39:01;15.00;99.90
13229;DHT22;6680;53.220;10.402;2023-06-14T00:41:29;15.00;99.90
13229;DHT22;6680;53.220;10.402;2023-06-14T00:43:55;15.00;99.90
13229;DHT22;6680;53.220;10.402;2023-06-14T00:46:23;14.90;99.90
13229;DHT22;6680;53.220;10.402;2023-06-14T00:48:49;14.80;99.90
13229;DHT22;6680;53.220;10.402;2023-06-14T00:51:18;14.70;99.90
13229;DHT22;6680;53.220;10.402;2023-06-14T00:53:45;14.60;99.90
13229;DHT22;6680;53.220;10.402;2023-06-14T00:56:12;14.50;99.90
13229;DHT22;6680;53.220;10.402;2023-06-14T00:58:40;14.50;99.90
13229;DHT22;6680;53.220;10.402;2023-06-14T01:01:07;14.20;99.90
13229;DHT22;6680;53.220;10.402;2023-06-14T01:03:34;14.40;99.90
13229;DHT22;6680;53.220;10.402;2023-06-14T01:06:09;14.20;99.90
13229;DHT22;6680;53.220;10.402;2023-06-14T01:08:45;14.30;99.90
13229;DHT22;6680;53.220;10.402;2023-06-14T01:11:19;13.90;99.90
13229;DHT22;6680;53.220;10.402;2023-06-14T01:13:49;13.80;99.90
13229;DHT22;6680;53.220;10.402;2023-06-14T01:16:17;14.10;99.90
13229;DHT22;6680;53.220;10.402;2023-06-14T01:18:44;14.00;99.90
13229;DHT22;6680;53.220;10.402;2023-06-14T01:21:20;13.90;99.90
13229;DHT22;6680;53.220;10.402;2023-06-14T01:23:48;13.40;99.90
13229;DHT22;6680;53.220;10.402;2023-06-14T01:26:18;13.60;99.90
13229;DHT22;6680;53.220;10.402;2023-06-14T01:28:45;13.60;99.90
13229;DHT22;6680;53.220;10.402;2023-06-14T01:31:16;13.50;99.90
13229;DHT22;6680;53.220;10.402;2023-06-14T01:33:44;13.10;99.90
13229;DHT22;6680;53.220;10.402;2023-06-14T01:36:12;13.40;99.90
13229;DHT22;6680;53.220;10.402;2023-06-14T01:38:40;13.30;99.90
13229;DHT22;6680;53.220;10.402;2023-06-14T01:41:11;13.30;99.90
13229;DHT22;6680;53.220;10.402;2023-06-14T01:43:39;13.20;99.90
13229;DHT22;6680;53.220;10.402;2023-06-14T01:46:06;13.20;99.90
13229;DHT22;6680;53.220;10.402;2023-06-14T01:48:35;13.20;99.90
13229;DHT22;6680;53.220;10.402;2023-06-14T01:51:01;13.20;99.90
13229;DHT22;6680;53.220;10.402;2023-06-14T01:53:28;13.10;99.90
13229;DHT22;6680;53.220;10.402;2023-06-14T01:55:57;13.10;99.90
13229;DHT22;6680;53.220;10.402;2023-06-14T01:58:25;13.00;99.90
13229;DHT22;6680;53.220;10.402;2023-06-14T02:00:52;13.10;99.90
13229;DHT22;6680;53.220;10.402;2023-06-14T02:03:22;12.90;99.90
13229;DHT22;6680;53.220;10.402;2023-06-14T02:05:49;12.90;99.90
13229;DHT22;6680;53.220;10.402;2023-06-14T02:08:15;12.60;99.90
13229;DHT22;6680;53.220;10.402;2023-06-14T02:10:42;12.50;99.90
13229;DHT22;6680;53.220;10.402;2023-06-14T02:13:09;12.70;99.90
13229;DHT22;6680;53.220;10.402;2023-06-14T02:15:37;12.80;99.90
13229;DHT22;6680;53.220;10.402;2023-06-14T02:18:04;12.70;99.90
13229;DHT22;6680;53.220;10.402;2023-06-14T02:20:31;12.70;99.90
13229;DHT22;6680;53.220;10.402;2023-06-14T02:22:58;12.60;99.90
13229;DHT22;6680;53.220;10.402;2023-06-14T02:25:25;12.60;99.90
13229;DHT22;6680;53.220;10.402;2023-06-14T02:27:53;12.50;99.90
13229;DHT22;6680;53.220;10.402;2023-06-14T02:30:20;12.40;99.90
13229;DHT22;6680;53.220;10.402;2023-06-14T02:32:48;12.40;99.90
13229;DHT22;6680;53.220;10.402;2023-06-14T02:35:16;12.50;99.90
13229;DHT22;6680;53.220;10.402;2023-06-14T02:37:43;12.30;99.90
13229;DHT22;6680;53.220;10.402;2023-06-14T02:40:16;12.30;99.90
13229;DHT22;6680;53.220;10.402;2023-06-14T02:42:43;12.30;99.90
13229;DHT22;6680;53.220;10.402;2023-06-14T02:45:09;12.30;99.90
13229;DHT22;6680;53.220;10.402;2023-06-14T02:47:36;12.20;99.90
13229;DHT22;6680;53.220;10.402;2023-06-14T02:50:05;12.20;99.90
13229;DHT22;6680;53.220;10.402;2023-06-14T02:52:33;12.10;99.90
13229;DHT22;6680;53.220;10.402;2023-06-14T02:54:59;12.10;99.90
13229;DHT22;6680;53.220;10.402;2023-06-14T02:57:26;12.10;99.90
13229;DHT22;6680;53.220;10.402;2023-06-14T02:59:53;12.10;99.90
13229;DHT22;6680;53.220;10.402;2023-06-14T03:02:19;12.20;99.90
13229;DHT22;6680;53.220;10.402;2023-06-14T03:04:46;12.20;99.90
13229;DHT22;6680;53.220;10.402;2023-06-14T03:07:14;12.20;99.90
13229;DHT22;6680;53.220;10.402;2023-06-14T03:09:45;12.40;99.90
13229;DHT22;6680;53.220;10.402;2023-06-14T03:12:12;12.50;99.90
13229;DHT22;6680;53.220;10.402;2023-06-14T03:14:39;12.60;99.90
13229;DHT22;6680;53.220;10.402;2023-06-14T03:17:05;12.80;99.90
13229;DHT22;6680;53.220;10.402;2023-06-14T03:19:33;12.90;99.90
13229;DHT22;6680;53.220;10.402;2023-06-14T03:22:00;12.90;99.90
13229;DHT22;6680;53.220;10.402;2023-06-14T03:24:29;12.90;99.90
13229;DHT22;6680;53.220;10.402;2023-06-14T03:26:57;13.10;99.90
13229;DHT22;6680;53.220;10.402;2023-06-14T03:29:24;13.10;99.90
13229;DHT22;6680;53.220;10.402;2023-06-14T03:31:58;13.10;99.90
13229;DHT22;6680;53.220;10.402;2023-06-14T03:34:25;13.10;99.90
13229;DHT22;6680;53.220;10.402;2023-06-14T03:36:51;13.10;99.90
13229;DHT22;6680;53.220;10.402;2023-06-14T03:39:18;13.20;99.90
13229;DHT22;6680;53.220;10.402;2023-06-14T03:41:47;13.40;99.90
13229;DHT22;6680;53.220;10.402;2023-06-14T03:44:15;13.70;99.90
13229;DHT22;6680;53.220;10.402;2023-06-14T03:46:42;14.20;99.90
13229;DHT22;6680;53.220;10.402;2023-06-14T03:49:08;14.60;99.90
13229;DHT22;6680;53.220;10.402;2023-06-14T03:51:36;15.20;99.90
13229;DHT22;6680;53.220;10.402;2023-06-14T03:54:03;15.80;99.90
13229;DHT22;6680;53.220;10.402;2023-06-14T03:56:29;16.40;99.90
13229;DHT22;6680;53.220;10.402;2023-06-14T03:58:57;16.80;99.90
13229;DHT22;6680;53.220;10.402;2023-06-14T04:01:24;17.20;99.90
13229;DHT22;6680;53.220;10.402;2023-06-14T04:03:55;17.60;99.90
13229;DHT22;6680;53.220;10.402;2023-06-14T04:06:23;17.90;99.90
13229;DHT22;6680;53.220;10.402;2023-06-14T04:08:51;18.10;99.90
13229;DHT22;6680;53.220;10.402;2023-06-14T04:11:18;18.30;99.90
13229;DHT22;6680;53.220;10.402;2023-06-14T04:13:45;18.70;99.90
13229;DHT22;6680;53.220;10.402;2023-06-14T04:16:14;19.10;99.90
13229;DHT22;6680;53.220;10.402;2023-06-14T04:18:40;19.40;99.90
13229;DHT22;6680;53.220;10.402;2023-06-14T04:21:07;19.80;99.90
13229;DHT22;6680;53.220;10.402;2023-06-14T04:23:34;20.70;99.90
13229;DHT22;6680;53.220;10.402;2023-06-14T04:26:00;20.70;99.90
13229;DHT22;6680;53.220;10.402;2023-06-14T04:28:28;21.20;99.90
13229;DHT22;6680;53.220;10.402;2023-06-14T04:30:55;21.70;99.90
13229;DHT22;6680;53.220;10.402;2023-06-14T04:33:23;22.20;99.90
13229;DHT22;6680;53.220;10.402;2023-06-14T04:35:50;22.60;99.90
13229;DHT22;6680;53.220;10.402;2023-06-14T04:38:19;22.90;99.90
13229;DHT22;6680;53.220;10.402;2023-06-14T04:40:49;23.00;99.90
13229;DHT22;6680;53.220;10.402;2023-06-14T04:43:18;23.10;99.90
13229;DHT22;6680;53.220;10.402;2023-06-14T04:45:53;23.30;99.90
13229;DHT22;6680;53.220;10.402;2023-06-14T04:48:23;23.20;99.90
13229;DHT22;6680;53.220;10.402;2023-06-14T04:50:50;23.10;99.90
13229;DHT22;6680;53.220;10.402;2023-06-14T04:53:19;23.10;99.90
13229;DHT22;6680;53.220;10.402;2023-06-14T04:55:48;23.20;99.90
13229;DHT22;6680;53.220;10.402;2023-06-14T04:58:16;23.40;99.90
13229;DHT22;6680;53.220;10.402;2023-06-14T05:00:42;23.70;99.90
13229;DHT22;6680;53.220;10.402;2023-06-14T05:03:09;23.70;99.90
13229;DHT22;6680;53.220;10.402;2023-06-14T05:05:40;23.70;99.90
13229;DHT22;6680;53.220;10.402;2023-06-14T05:08:07;23.20;99.90
13229;DHT22;6680;53.220;10.402;2023-06-14T05:10:34;22.90;99.90
13229;DHT22;6680;53.220;10.402;2023-06-14T05:13:01;23.00;99.90
13229;DHT22;6680;53.220;10.402;2023-06-14T05:15:28;23.40;99.90
13229;DHT22;6680;53.220;10.402;2023-06-14T05:17:55;23.70;99.90
13229;DHT22;6680;53.220;10.402;2023-06-14T05:20:22;23.60;99.90
13229;DHT22;6680;53.220;10.402;2023-06-14T05:22:52;23.60;99.90
13229;DHT22;6680;53.220;10.402;2023-06-14T05:25:18;23.60;99.90
13229;DHT22;6680;53.220;10.402;2023-06-14T05:27:45;23.50;99.90
13229;DHT22;6680;53.220;10.402;2023-06-14T05:30:13;23.60;99.90
13229;DHT22;6680;53.220;10.402;2023-06-14T05:32:40;23.90;99.90
13229;DHT22;6680;53.220;10.402;2023-06-14T05:35:08;23.90;99.90
13229;DHT22;6680;53.220;10.402;2023-06-14T05:37:34;23.70;99.90
13229;DHT22;6680;53.220;10.402;2023-06-14T05:40:03;23.50;99.90
13229;DHT22;6680;53.220;10.402;2023-06-14T05:42:31;23.50;99.90
13229;DHT22;6680;53.220;10.402;2023-06-14T05:44:58;23.70;99.90
13229;DHT22;6680;53.220;10.402;2023-06-14T05:47:25;23.80;99.90
13229;DHT22;6680;53.220;10.402;2023-06-14T05:49:53;23.90;99.90
13229;DHT22;6680;53.220;10.402;2023-06-14T05:52:19;23.80;99.90
13229;DHT22;6680;53.220;10.402;2023-06-14T05:54:47;23.90;99.90
13229;DHT22;6680;53.220;10.402;2023-06-14T05:57:15;24.20;99.90
13229;DHT22;6680;53.220;10.402;2023-06-14T05:59:42;24.60;99.90
13229;DHT22;6680;53.220;10.402;2023-06-14T06:02:09;24.90;99.90
13229;DHT22;6680;53.220;10.402;2023-06-14T06:04:35;24.80;99.90
13229;DHT22;6680;53.220;10.402;2023-06-14T06:07:02;24.40;99.90
13229;DHT22;6680;53.220;10.402;2023-06-14T06:09:30;24.20;99.90
13229;DHT22;6680;53.220;10.402;2023-06-14T06:11:57;24.30;99.90
13229;DHT22;6680;53.220;10.402;2023-06-14T06:14:25;24.50;99.90
13229;DHT22;6680;53.220;10.402;2023-06-14T06:16:52;24.50;99.90
13229;DHT22;6680;53.220;10.402;2023-06-14T06:19:19;24.40;99.90
13229;DHT22;6680;53.220;10.402;2023-06-14T06:21:45;24.20;99.90
13229;DHT22;6680;53.220;10.402;2023-06-14T06:24:12;24.20;99.90
13229;DHT22;6680;53.220;10.402;2023-06-14T06:26:39;23.80;99.90
13229;DHT22;6680;53.220;10.402;2023-06-14T06:29:06;23.10;99.90
13229;DHT22;6680;53.220;10.402;2023-06-14T06:31:34;22.30;99.90
13229;DHT22;6680;53.220;10.402;2023-06-14T06:34:01;21.60;99.90
13229;DHT22;6680;53.220;10.402;2023-06-14T06:36:28;21.00;99.90
13229;DHT22;6680;53.220;10.402;2023-06-14T06:38:54;20.40;99.90
13229;DHT22;6680;53.220;10.402;2023-06-14T06:41:21;20.00;99.90
13229;DHT22;6680;53.220;10.402;2023-06-14T06:43:48;19.80;99.90
13229;DHT22;6680;53.220;10.402;2023-06-14T06:46:15;19.40;99.90
13229;DHT22;6680;53.220;10.402;2023-06-14T06:48:44;19.20;99.90
13229;DHT22;6680;53.220;10.402;2023-06-14T06:51:11;18.90;99.90
13229;DHT22;6680;53.220;10.402;2023-06-14T06:53:38;18.80;99.90
13229;DHT22;6680;53.220;10.402;2023-06-14T06:56:05;18.80;99.90
13229;DHT22;6680;53.220;10.402;2023-06-14T06:58:32;18.80;99.90
13229;DHT22;6680;53.220;10.402;2023-06-14T07:00:58;18.70;99.90
13229;DHT22;6680;53.220;10.402;2023-06-14T07:03:25;18.80;99.90
13229;DHT22;6680;53.220;10.402;2023-06-14T07:05:53;18.80;99.90
13229;DHT22;6680;53.220;10.402;2023-06-14T07:08:20;18.80;99.90
13229;DHT22;6680;53.220;10.402;2023-06-14T07:10:46;18.90;99.90
13229;DHT22;6680;53.220;10.402;2023-06-14T07:13:13;19.00;99.90
13229;DHT22;6680;53.220;10.402;2023-06-14T07:18:07;19.10;99.90
13229;DHT22;6680;53.220;10.402;2023-06-14T07:20:34;18.70;99.90
13229;DHT22;6680;53.220;10.402;2023-06-14T07:23:04;19.00;99.90
13229;DHT22;6680;53.220;10.402;2023-06-14T07:25:31;19.10;99.90
13229;DHT22;6680;53.220;10.402;2023-06-14T07:27:58;19.20;99.90
13229;DHT22;6680;53.220;10.402;2023-06-14T07:30:25;19.10;99.90
13229;DHT22;6680;53.220;10.402;2023-06-14T07:32:52;19.20;99.90
13229;DHT22;6680;53.220;10.402;2023-06-14T07:35:19;19.20;99.90
13229;DHT22;6680;53.220;10.402;2023-06-14T07:37:46;19.30;99.90
13229;DHT22;6680;53.220;10.402;2023-06-14T07:40:14;19.30;99.90
13229;DHT22;6680;53.220;10.402;2023-06-14T07:42:41;19.40;99.90
13229;DHT22;6680;53.220;10.402;2023-06-14T07:45:09;19.50;99.90
13229;DHT22;6680;53.220;10.402;2023-06-14T07:47:36;19.50;99.90
13229;DHT22;6680;53.220;10.402;2023-06-14T07:50:03;19.50;99.90
13229;DHT22;6680;53.220;10.402;2023-06-14T07:52:30;17.60;99.90
13229;DHT22;6680;53.220;10.402;2023-06-14T07:54:56;19.60;99.90
13229;DHT22;6680;53.220;10.402;2023-06-14T07:57:24;19.80;99.90
13229;DHT22;6680;53.220;10.402;2023-06-14T07:59:51;19.90;99.90
13229;DHT22;6680;53.220;10.402;2023-06-14T08:02:18;20.00;99.90
13229;DHT22;6680;53.220;10.402;2023-06-14T08:04:45;19.90;99.90
13229;DHT22;6680;53.220;10.402;2023-06-14T08:07:12;19.90;99.90
13229;DHT22;6680;53.220;10.402;2023-06-14T08:09:38;20.00;99.90
13229;DHT22;6680;53.220;10.402;2023-06-14T08:12:06;20.00;99.90
13229;DHT22;6680;53.220;10.402;2023-06-14T08:14:36;20.10;99.90
13229;DHT22;6680;53.220;10.402;2023-06-14T08:17:03;20.30;99.90
13229;DHT22;6680;53.220;10.402;2023-06-14T08:19:30;20.40;99.90
13229;DHT22;6680;53.220;10.402;2023-06-14T08:24:24;20.50;99.90
13229;DHT22;6680;53.220;10.402;2023-06-14T08:26:52;20.60;99.90
13229;DHT22;6680;53.220;10.402;2023-06-14T08:29:19;20.70;99.90
13229;DHT22;6680;53.220;10.402;2023-06-14T08:31:47;20.90;99.90
13229;DHT22;6680;53.220;10.402;2023-06-14T08:34:14;20.90;99.90
13229;DHT22;6680;53.220;10.402;2023-06-14T08:36:40;20.80;99.90
13229;DHT22;6680;53.220;10.402;2023-06-14T08:39:07;20.80;99.90
13229;DHT22;6680;53.220;10.402;2023-06-14T08:41:34;20.90;99.90
13229;DHT22;6680;53.220;10.402;2023-06-14T08:44:02;20.90;99.90
13229;DHT22;6680;53.220;10.402;2023-06-14T08:46:32;20.90;99.90
13229;DHT22;6680;53.220;10.402;2023-06-14T08:49:02;21.00;99.90
13229;DHT22;6680;53.220;10.402;2023-06-14T08:51:31;21.00;99.90
13229;DHT22;6680;53.220;10.402;2023-06-14T08:53:59;21.00;99.90
13229;DHT22;6680;53.220;10.402;2023-06-14T08:56:27;21.00;99.90
13229;DHT22;6680;53.220;10.402;2023-06-14T08:58:55;21.10;99.90
13229;DHT22;6680;53.220;10.402;2023-06-14T09:01:23;21.20;99.90
13229;DHT22;6680;53.220;10.402;2023-06-14T09:03:50;21.20;99.90
13229;DHT22;6680;53.220;10.402;2023-06-14T09:06:19;21.30;99.90
13229;DHT22;6680;53.220;10.402;2023-06-14T09:08:49;21.40;99.90
13229;DHT22;6680;53.220;10.402;2023-06-14T09:11:17;21.40;99.90
13229;DHT22;6680;53.220;10.402;2023-06-14T09:13:44;21.50;99.90
13229;DHT22;6680;53.220;10.402;2023-06-14T09:16:12;21.70;99.90
13229;DHT22;6680;53.220;10.402;2023-06-14T09:18:40;21.80;99.90
13229;DHT22;6680;53.220;10.402;2023-06-14T09:21:09;21.80;99.90
13229;DHT22;6680;53.220;10.402;2023-06-14T09:23:38;21.80;99.90
13229;DHT22;6680;53.220;10.402;2023-06-14T09:26:08;21.90;99.90
13229;DHT22;6680;53.220;10.402;2023-06-14T09:28:36;22.00;99.90
13229;DHT22;6680;53.220;10.402;2023-06-14T09:31:07;22.10;99.90
13229;DHT22;6680;53.220;10.402;2023-06-14T09:33:35;21.90;99.90
13229;DHT22;6680;53.220;10.402;2023-06-14T09:36:02;22.00;99.90
13229;DHT22;6680;53.220;10.402;2023-06-14T09:40:58;22.00;99.90
13229;DHT22;6680;53.220;10.402;2023-06-14T09:43:25;22.10;99.90
13229;DHT22;6680;53.220;10.402;2023-06-14T09:45:54;22.20;99.90
13229;DHT22;6680;53.220;10.402;2023-06-14T09:48:21;22.30;99.90
13229;DHT22;6680;53.220;10.402;2023-06-14T09:50:50;22.40;99.90
13229;DHT22;6680;53.220;10.402;2023-06-14T09:53:21;22.30;99.90
13229;DHT22;6680;53.220;10.402;2023-06-14T09:55:49;22.40;99.90
13229;DHT22;6680;53.220;10.402;2023-06-14T09:58:20;22.60;99.90
13229;DHT22;6680;53.220;10.402;2023-06-14T10:00:50;22.90;99.90
13229;DHT22;6680;53.220;10.402;2023-06-14T10:03:24;22.90;99.90
13229;DHT22;6680;53.220;10.402;2023-06-14T10:05:52;23.00;99.90
13229;DHT22;6680;53.220;10.402;2023-06-14T10:08:23;22.70;99.90
13229;DHT22;6680;53.220;10.402;2023-06-14T10:10:53;23.00;99.90
13229;DHT22;6680;53.220;10.402;2023-06-14T10:13:23;23.10;99.90
13229;DHT22;6680;53.220;10.402;2023-06-14T10:15:57;23.10;99.90
13229;DHT22;6680;53.220;10.402;2023-06-14T10:18:31;23.30;99.90
13229;DHT22;6680;53.220;10.402;2023-06-14T10:21:05;23.20;99.90
13229;DHT22;6680;53.220;10.402;2023-06-14T10:23:38;22.90;99.90
13229;DHT22;6680;53.220;10.402;2023-06-14T10:26:08;22.90;99.90
13229;DHT22;6680;53.220;10.402;2023-06-14T10:28:38;23.00;99.90
13229;DHT22;6680;53.220;10.402;2023-06-14T10:31:06;23.00;99.90
13229;DHT22;6680;53.220;10.402;2023-06-14T10:36:08;23.10;99.90
13229;DHT22;6680;53.220;10.402;2023-06-14T10:38:36;23.30;99.90
13229;DHT22;6680;53.220;10.402;2023-06-14T10:41:04;23.20;99.90
13229;DHT22;6680;53.220;10.402;2023-06-14T10:46:16;23.00;99.90
13229;DHT22;6680;53.220;10.402;2023-06-14T10:51:18;22.90;99.90
13229;DHT22;6680;53.220;10.402;2023-06-14T10:53:48;23.10;99.90
13229;DHT22;6680;53.220;10.402;2023-06-14T10:56:36;23.10;99.90
13229;DHT22;6680;53.220;10.402;2023-06-14T10:59:03;23.50;99.90
13229;DHT22;6680;53.220;10.402;2023-06-14T11:01:38;23.70;99.80
13229;DHT22;6680;53.220;10.402;2023-06-14T11:04:09;23.90;99.50
13229;DHT22;6680;53.220;10.402;2023-06-14T11:06:46;23.90;99.10
13229;DHT22;6680;53.220;10.402;2023-06-14T11:09:38;23.90;99.50
13229;DHT22;6680;53.220;10.402;2023-06-14T11:12:10;24.00;98.90
13229;DHT22;6680;53.220;10.402;2023-06-14T11:14:37;24.20;98.90
13229;DHT22;6680;53.220;10.402;2023-06-14T11:17:06;24.40;98.50
13229;DHT22;6680;53.220;10.402;2023-06-14T11:26:55;24.10;98.30
13229;DHT22;6680;53.220;10.402;2023-06-14T11:29:23;23.70;99.90
13229;DHT22;6680;53.220;10.402;2023-06-14T11:31:50;23.60;98.10
13229;DHT22;6680;53.220;10.402;2023-06-14T11:34:18;23.60;98.40
13229;DHT22;6680;53.220;10.402;2023-06-14T11:41:42;23.80;98.10
13229;DHT22;6680;53.220;10.402;2023-06-14T11:46:37;24.20;96.60
13229;DHT22;6680;53.220;10.402;2023-06-14T11:49:04;24.30;97.80
13229;DHT22;6680;53.220;10.402;2023-06-14T11:51:36;24.60;97.60
13229;DHT22;6680;53.220;10.402;2023-06-14T11:54:04;24.90;97.30
13229;DHT22;6680;53.220;10.402;2023-06-14T12:03:54;25.50;95.50
13229;DHT22;6680;53.220;10.402;2023-06-14T12:06:27;25.30;95.80
13229;DHT22;6680;53.220;10.402;2023-06-14T12:09:04;25.50;96.10
13229;DHT22;6680;53.220;10.402;2023-06-14T12:11:33;25.20;96.10
13229;DHT22;6680;53.220;10.402;2023-06-14T12:16:31;25.00;96.00
13229;DHT22;6680;53.220;10.402;2023-06-14T12:19:00;25.00;96.90
13229;DHT22;6680;53.220;10.402;2023-06-14T12:26:24;24.70;95.80
13229;DHT22;6680;53.220;10.402;2023-06-14T12:28:52;24.60;96.40
13229;DHT22;6680;53.220;10.402;2023-06-14T12:31:19;24.50;96.10
13229;DHT22;6680;53.220;10.402;2023-06-14T12:33:46;24.30;96.20
13229;DHT22;6680;53.220;10.402;2023-06-14T12:38:42;24.10;95.90
13229;DHT22;6680;53.220;10.402;2023-06-14T12:41:09;24.20;95.90
13229;DHT22;6680;53.220;10.402;2023-06-14T12:43:37;24.30;96.20
13229;DHT22;6680;53.220;10.402;2023-06-14T12:46:04;24.50;96.10
13229;DHT22;6680;53.220;10.402;2023-06-14T12:48:30;24.40;95.80
13229;DHT22;6680;53.220;10.402;2023-06-14T12:50:57;24.40;95.70
13229;DHT22;6680;53.220;10.402;2023-06-14T12:53:24;24.40;95.30
13229;DHT22;6680;53.220;10.402;2023-06-14T12:58:17;24.30;95.30
13229;DHT22;6680;53.220;10.402;2023-06-14T13:00:46;24.10;95.70
13229;DHT22;6680;53.220;10.402;2023-06-14T13:03:13;24.10;96.00
13229;DHT22;6680;53.220;10.402;2023-06-14T13:05:40;24.10;94.90
13229;DHT22;6680;53.220;10.402;2023-06-14T13:15:30;24.10;94.70
13229;DHT22;6680;53.220;10.402;2023-06-14T13:17:58;24.10;94.40
13229;DHT22;6680;53.220;10.402;2023-06-14T13:20:24;24.20;94.70
13229;DHT22;6680;53.220;10.402;2023-06-14T13:22:51;24.20;93.90
13229;DHT22;6680;53.220;10.402;2023-06-14T13:25:18;24.20;94.90
13229;DHT22;6680;53.220;10.402;2023-06-14T13:27:45;24.50;95.10
13229;DHT22;6680;53.220;10.402;2023-06-14T13:30:12;24.70;94.80
13229;DHT22;6680;53.220;10.402;2023-06-14T13:35:08;25.40;92.90
13229;DHT22;6680;53.220;10.402;2023-06-14T13:40:01;25.20;92.80
13229;DHT22;6680;53.220;10.402;2023-06-14T13:44:58;25.00;93.00
13229;DHT22;6680;53.220;10.402;2023-06-14T13:47:24;25.10;92.70
13229;DHT22;6680;53.220;10.402;2023-06-14T13:49:51;24.80;92.80
13229;DHT22;6680;53.220;10.402;2023-06-14T13:52:19;24.60;92.50
13229;DHT22;6680;53.220;10.402;2023-06-14T13:54:46;24.50;92.70
13229;DHT22;6680;53.220;10.402;2023-06-14T13:57:13;24.50;92.70
13229;DHT22;6680;53.220;10.402;2023-06-14T14:07:01;25.30;92.20
13229;DHT22;6680;53.220;10.402;2023-06-14T14:09:30;25.30;92.20
13229;DHT22;6680;53.220;10.402;2023-06-14T14:14:24;25.00;92.80
13229;DHT22;6680;53.220;10.402;2023-06-14T14:16:50;24.80;93.40
13229;DHT22;6680;53.220;10.402;2023-06-14T14:26:42;24.50;93.70
13229;DHT22;6680;53.220;10.402;2023-06-14T14:29:09;24.40;93.90
13229;DHT22;6680;53.220;10.402;2023-06-14T14:31:37;24.50;93.80
13229;DHT22;6680;53.220;10.402;2023-06-14T14:36:31;24.40;94.90
13229;DHT22;6680;53.220;10.402;2023-06-14T14:38:58;24.40;95.60
13229;DHT22;6680;53.220;10.402;2023-06-14T14:43:53;24.80;95.20
13229;DHT22;6680;53.220;10.402;2023-06-14T14:48:47;25.00;95.40
13229;DHT22;6680;53.220;10.402;2023-06-14T15:01:05;24.60;95.00
13229;DHT22;6680;53.220;10.402;2023-06-14T15:05:59;24.60;95.10
13229;DHT22;6680;53.220;10.402;2023-06-14T15:10:53;24.80;94.20
13229;DHT22;6680;53.220;10.402;2023-06-14T15:13:20;25.00;95.00
13229;DHT22;6680;53.220;10.402;2023-06-14T15:15:48;25.10;93.50
13229;DHT22;6680;53.220;10.402;2023-06-14T15:18:16;25.30;93.50
13229;DHT22;6680;53.220;10.402;2023-06-14T15:33:06;24.80;95.60
13229;DHT22;6680;53.220;10.402;2023-06-14T15:35:34;24.60;96.10
13229;DHT22;6680;53.220;10.402;2023-06-14T15:38:01;24.50;96.50
13229;DHT22;6680;53.220;10.402;2023-06-14T15:40:28;24.00;99.90
13229;DHT22;6680;53.220;10.402;2023-06-14T15:42:55;24.10;96.80
13229;DHT22;6680;53.220;10.402;2023-06-14T15:47:48;23.90;97.00
13229;DHT22;6680;53.220;10.402;2023-06-14T15:50:15;23.90;97.20
13229;DHT22;6680;53.220;10.402;2023-06-14T15:52:43;23.80;96.90
13229;DHT22;6680;53.220;10.402;2023-06-14T15:57:37;24.00;96.50
13229;DHT22;6680;53.220;10.402;2023-06-14T16:00:05;24.20;97.00
13229;DHT22;6680;53.220;10.402;2023-06-14T16:07:25;24.20;95.40
13229;DHT22;6680;53.220;10.402;2023-06-14T16:09:54;24.20;95.60
13229;DHT22;6680;53.220;10.402;2023-06-14T16:14:47;24.10;95.90
13229;DHT22;6680;53.220;10.402;2023-06-14T16:17:14;24.10;95.80
13229;DHT22;6680;53.220;10.402;2023-06-14T16:19:41;23.90;96.20
13229;DHT22;6680;53.220;10.402;2023-06-14T16:22:08;23.90;95.90
13229;DHT22;6680;53.220;10.402;2023-06-14T16:27:03;23.80;95.90
13229;DHT22;6680;53.220;10.402;2023-06-14T16:31:58;23.90;95.70
13229;DHT22;6680;53.220;10.402;2023-06-14T16:36:53;23.90;99.90
13229;DHT22;6680;53.220;10.402;2023-06-14T16:39:19;23.80;96.10
13229;DHT22;6680;53.220;10.402;2023-06-14T16:41:46;23.90;96.00
13229;DHT22;6680;53.220;10.402;2023-06-14T16:44:14;23.90;95.20
13229;DHT22;6680;53.220;10.402;2023-06-14T16:46:41;24.00;95.60
13229;DHT22;6680;53.220;10.402;2023-06-14T16:49:07;24.10;95.10
13229;DHT22;6680;53.220;10.402;2023-06-14T16:51:34;24.10;95.30
13229;DHT22;6680;53.220;10.402;2023-06-14T16:54:01;24.20;94.70
13229;DHT22;6680;53.220;10.402;2023-06-14T16:56:27;24.20;94.70
13229;DHT22;6680;53.220;10.402;2023-06-14T16:58:56;24.20;94.80
13229;DHT22;6680;53.220;10.402;2023-06-14T17:01:25;24.20;94.70
13229;DHT22;6680;53.220;10.402;2023-06-14T17:03:52;24.20;94.20
13229;DHT22;6680;53.220;10.402;2023-06-14T17:06:19;24.20;94.30
13229;DHT22;6680;53.220;10.402;2023-06-14T17:08:47;24.20;94.60
13229;DHT22;6680;53.220;10.402;2023-06-14T17:11:13;24.10;94.50
13229;DHT22;6680;53.220;10.402;2023-06-14T17:13:40;24.10;94.60
13229;DHT22;6680;53.220;10.402;2023-06-14T17:16:07;24.40;94.60
13229;DHT22;6680;53.220;10.402;2023-06-14T17:18:37;24.30;94.10
13229;DHT22;6680;53.220;10.402;2023-06-14T17:21:03;24.50;94.60
13229;DHT22;6680;53.220;10.402;2023-06-14T17:23:30;24.70;93.80
13229;DHT22;6680;53.220;10.402;2023-06-14T17:25:57;24.80;93.80
13229;DHT22;6680;53.220;10.402;2023-06-14T17:28:24;24.70;93.80
13229;DHT22;6680;53.220;10.402;2023-06-14T17:30:51;24.80;93.30
13229;DHT22;6680;53.220;10.402;2023-06-14T17:33:17;24.70;93.10
13229;DHT22;6680;53.220;10.402;2023-06-14T17:35:46;24.60;93.10
13229;DHT22;6680;53.220;10.402;2023-06-14T17:38:12;24.50;93.20
13229;DHT22;6680;53.220;10.402;2023-06-14T17:40:40;24.70;96.70
13229;DHT22;6680;53.220;10.402;2023-06-14T17:43:07;24.70;92.80
13229;DHT22;6680;53.220;10.402;2023-06-14T17:45:33;24.70;92.60
13229;DHT22;6680;53.220;10.402;2023-06-14T17:48:00;24.70;92.70
13229;DHT22;6680;53.220;10.402;2023-06-14T17:50:27;24.70;92.60